Tiempo atmosférico en la estación meteorológica de Almonte, Huelva (5 m.)



Fecha
DESCASC
Temp. máxima en grados centígrados (hora)
DESCASC
Temp. mínima en grados centígrados (hora)
DESCASC
Temp. media en grados centígrados
DESCASC
Racha de viento máxima en m/sg (hora)
DESCASC
Velocidad máxima media en intervalos de 10 minutos(hora)
DESCASC
Precipitaciones diarias en mm
DESCASC
Precipitaciones de 00:00 a 06:00 en mm
DESCASC
Precipitaciones de 06:00 a 12:00 en mm
DESCASC
Precipitaciones de 12:00 a 18:00 en mm
DESCASC
Precipitaciones de 18:00 a 24:00 en mm
DESCASC
19-04-2018 26.8 (16:50) 12.1 (03:10) 19.4 7.22 (11:10) 5 (11:20) 0 0 0 0 0
18-04-2018 27.5 (17:50) 10.2 (05:00) 18.8 5.56 (10:00) 3.89 (10:10) 0 0 0 0 0
17-04-2018 24.8 (19:10) 8.9 (08:00) 16.8 6.67 (12:00) 4.44 (12:00) 0 0 0 0 0
16-04-2018 19 (16:50) 7.6 (08:10) 13.3 8.33 (15:10) 5.28 (16:00) 0.6 0.4 0.2 0 0
15-04-2018 18 (15:50) 9.4 (00:00) 13.7 9.72 (16:10) 6.67 (19:00) 0.8 0 0 0 0.8
14-04-2018 19.3 (16:40) 5.4 (00:00) 12.3 9.72 (19:10) 7.22 (19:00) 0 0 0 0 0
13-04-2018 16.7 (18:20) 9.2 (00:00) 13 13.06 (13:00) 8.33 (07:20) 15.6 1.2 14.4 0 0
12-04-2018 16.2 (12:20) 9.2 (00:00) 12.7 19.17 (15:20) 11.11 (15:00) 16 0 0.4 15.6 0
11-04-2018 17.3 (16:10) 9.5 (00:00) 13.4 15 (01:30) 10.28 (17:50) 0 0 0 0 0
10-04-2018 14.6 (15:40) 6.6 (00:00) 10.6 19.44 (14:00) 13.61 (14:30) 28.2 0 2.6 25.6 0
09-04-2018 16.8 (17:10) 5.8 (00:00) 11.3 10.83 (17:50) 6.94 (17:50) 3.4 3.4 0 0 0
08-04-2018 17.9 (16:20) 6.7 (00:00) 12.3 14.44 (20:30) 9.72 (20:20) 3.2 0 0 0 3.2
07-04-2018 17.5 (15:00) 9.7 (00:00) 13.6 12.78 (15:30) 8.89 (15:30) 8.2 7.2 0 0 1
06-04-2018 20.4 (12:30) 7.8 (00:00) 14.1 12.22 (14:30) 8.89 (17:20) 3.4 0 0 0 3.4
05-04-2018 24 (19:00) 9.3 (00:00) 16.7 6.67 (10:50) 4.72 (10:50) 0 0 0 0 0
04-04-2018 19.4 (16:20) 11.7 (00:00) 15.5 9.44 (15:30) 7.22 (15:30) 0 0 0 0 0
03-04-2018 19.9 (15:20) 11.4 (00:00) 15.6 10.83 (15:50) 7.78 (18:10) 0 0 0 0 0
02-04-2018 19.9 (15:50) 9.8 (00:00) 14.8 10.83 (11:20) 6.67 (16:50) 0 0 0 0 0
01-04-2018 21.9 (18:20) 7.1 (00:00) 14.5 6.67 (07:20) 4.44 (07:00) 0 0 0 0 0
31-03-2018 18 (16:00) 7 (00:00) 12.5 12.78 (00:20) 8.06 (00:20) 1.4 1.4 0 0 0
30-03-2018 16.8 (16:20) 8.3 (00:00) 12.5 16.67 (22:00) 11.11 (18:40) 4.6 0 4.6 0 0
29-03-2018 17.6 (14:10) 9 (00:00) 13.3 11.94 (16:10) 8.89 (16:00) 0 0 0 0 0
28-03-2018 23.3 (15:40) 8.2 (00:00) 15.7 8.89 (19:30) 6.67 (18:20) 0 0 0 0 0
27-03-2018 23.1 (18:10) 6.9 (00:00) 15 6.39 (16:30) 4.17 (16:30) 0 0 0 0 0
26-03-2018 19.2 (18:20) 4.9 (00:00) 12.1 7.22 (22:40) 5 (23:00) 0 0 0 0 0
25-03-2018 19.4 (16:50) 10 (00:00) 14.7 13.89 (11:50) 8.61 (08:30) 8.6 3 5.6 0 0
24-03-2018 16.9 (15:40) 7.7 (00:00) 12.3 16.67 (02:30) 11.67 (03:00) 1.8 1.8 0 0 0
23-03-2018 14.4 (13:10) 4.7 (00:00) 9.5 14.72 (23:59) 9.17 (23:00) 2 0 0 1.8 0.2

Gráficas

Temp. máximas Temp. mínimas Temp. medias Precipitaciones Rachas de viento máximas Velocidades máximas media en intervalos de 10 minutos

Datos horarios

Fecha y hora oficial Temperatura (ºC) Velocidad del viento (km/h) Dirección del viento Racha (km/h) Dirección de racha Precipitación (mm) Presión (hPa) Tendencia (hPa) Humedad (%)
2018-04-21 23:00:00 15.7 6 Sur 17 Sudoeste 1.8 -- -- 96
2018-04-21 22:00:00 15.8 13 Sudoeste 39 Oeste 2 -- -- 95
2018-04-21 21:00:00 16.4 14 Oeste 27 Sudoeste 1 -- -- 93
2018-04-21 20:00:00 17.7 10 Oeste 18 Oeste 0 -- -- 84
2018-04-21 19:00:00 20.4 5 Noroeste 10 Noroeste 0 -- -- 73
2018-04-21 18:00:00 21 6 Nordeste 14 Nordeste 0 -- -- 67
2018-04-21 17:00:00 21.2 6 Nordeste 17 Este 0 -- -- 67
2018-04-21 16:00:00 21.1 7 Este 19 Sudeste 0 -- -- 68
2018-04-21 15:00:00 20.6 7 Sudeste 31 Este 0 -- -- 72
2018-04-21 14:00:00 17.2 14 Sudeste 45 Sur 0.6 -- -- 86
2018-04-21 13:00:00 17.6 6 Este 22 Sur 0.6 -- -- 86
2018-04-21 12:00:00 17.9 17 Sur 31 Sur 0 -- -- 75
2018-04-21 11:00:00 17.5 13 Sudoeste 24 Sur 0 -- -- 80
2018-04-21 10:00:00 16.3 8 Sur 22 Este 0 -- -- 90
2018-04-21 09:00:00 15.7 9 Este 32 Este 0 -- -- 89
2018-04-21 08:00:00 15.4 17 Nordeste 33 Nordeste 0 -- -- 90
2018-04-21 07:00:00 15.1 21 Nordeste 33 Nordeste 0.6 -- -- 94
2018-04-21 06:00:00 14.8 10 Nordeste 20 Nordeste 0.2 -- -- 95
2018-04-21 05:00:00 15.1 6 Norte 23 Oeste 0.4 -- -- 93
2018-04-21 04:00:00 15.4 19 Oeste 31 Sudoeste 0 -- -- 92
2018-04-21 03:00:00 16 7 Este 32 Nordeste 1.8 -- -- 88
2018-04-21 02:00:00 15.7 10 Sur 18 Sur 0.2 -- -- 87
2018-04-21 01:00:00 16.3 5 Este 17 Nordeste 0 -- -- 82
2018-04-21 00:00:00 16.8 8 Este 38 Este 0 -- -- 77
2018-04-20 23:00:00 16.9 10 Sudeste 22 Sudeste 0 -- -- 77
2018-04-20 22:00:00 17.6 14 Sudeste 28 Sudeste 0 -- -- 74
2018-04-20 21:00:00 18 6 Sudeste 28 Sur 0 -- -- 72
2018-04-20 20:00:00 18.9 10 Sudeste 37 Sur 0 -- -- 69
2018-04-20 19:00:00 20.2 21 Sur 30 Sur 0 -- -- 63
2018-04-20 18:00:00 22.3 18 Sur 28 Este 0 -- -- 58
2018-04-20 17:00:00 23.2 11 Sudeste 27 Sur 0 -- -- 55
2018-04-20 16:00:00 23.8 14 Sudeste 29 Sur 0 -- -- 56
2018-04-20 15:00:00 23.5 13 Sudeste 30 Sur 0 -- -- 58
2018-04-20 14:00:00 23.1 12 Sudeste 36 Sudeste 0 -- -- 61
2018-04-20 13:00:00 21.8 15 Sudeste 34 Sudeste 0 -- -- 58
2018-04-20 12:00:00 20.3 17 Nordeste 26 Nordeste 0 -- -- 64
2018-04-20 11:00:00 18.7 16 Nordeste 30 Nordeste 0 -- -- 68
2018-04-20 10:00:00 16.7 17 Nordeste 30 Nordeste 0 -- -- 75
2018-04-20 09:00:00 14 18 Nordeste 27 Nordeste 0 -- -- 86
2018-04-20 08:00:00 14.1 16 Nordeste 24 Nordeste 0 -- -- 84
2018-04-20 07:00:00 14.2 14 Nordeste 25 Nordeste 0 -- -- 84
2018-04-20 06:00:00 13.7 17 Nordeste 23 Nordeste 0 -- -- 88
2018-04-20 05:00:00 14.2 17 Nordeste 22 Nordeste 0 -- -- 85
2018-04-20 04:00:00 16.7 14 Este 31 Este 0 -- -- 71
2018-04-20 03:00:00 16.3 9 Nordeste 21 Este 0 -- -- 74
2018-04-20 02:00:00 16.7 6 Este 22 Este 0 -- -- 72
2018-04-20 01:00:00 17 11 Este 24 Sudeste 0 -- -- 71
2018-04-20 00:00:00 17.3 7 Sudeste 22 Sudeste 0 -- -- 69
2018-04-19 23:00:00 17.5 6 Sudeste 16 Sudeste 0 -- -- 68
2018-04-19 22:00:00 18.7 5 Sudeste 15 Sudeste 0 -- -- 65
2018-04-19 21:00:00 20.8 7 Sudeste 17 Sudeste 0 -- -- 57
2018-04-19 20:00:00 23.1 5 Sudeste 23 Sur 0 -- -- 51
2018-04-19 19:00:00 24.9 9 Sudeste 23 Sur 0 -- -- 47
2018-04-19 18:00:00 26.3 9 Sudeste 22 Este 0 -- -- 42
2018-04-19 17:00:00 26.7 11 Sudeste 23 Este 0 -- -- 41
2018-04-19 16:00:00 26.5 10 Este 19 Este 0 -- -- 42
2018-04-19 15:00:00 24.7 9 Nordeste 20 Nordeste 0 -- -- 46
2018-04-19 14:00:00 23.8 13 Nordeste 23 Nordeste 0 -- -- 50
2018-04-19 13:00:00 22.6 17 Nordeste 24 Nordeste 0 -- -- 53
2018-04-19 12:00:00 21.1 13 Nordeste 26 Nordeste 0 -- -- 58
2018-04-19 11:00:00 18.3 17 Nordeste 24 Nordeste 0 -- -- 69
2018-04-19 10:00:00 15.6 14 Nordeste 21 Nordeste 0 -- -- 76
2018-04-19 09:00:00 13.9 10 Nordeste 18 Nordeste 0 -- -- 76
2018-04-19 08:00:00 12.9 7 Norte 20 Nordeste 0 -- -- 81
2018-04-19 07:00:00 13 10 Nordeste 18 Nordeste 0 -- -- 82
2018-04-19 06:00:00 13.2 9 Nordeste 15 Nordeste 0 -- -- 84
2018-04-19 05:00:00 14.1 12 Nordeste 19 Nordeste 0 -- -- 87
2018-04-19 04:00:00 12.6 4 Este 9 Nordeste 0 -- -- 92
2018-04-19 03:00:00 12.2 2 Norte 6 Nordeste 0 -- -- 82
2018-04-19 02:00:00 12.5 3 Nordeste 6 Este 0 -- -- 85
2018-04-19 01:00:00 13.7 3 Norte 6 Este 0 -- -- 77
2018-04-19 00:00:00 15.1 4 Este 10 Este 0 -- -- 64
2018-04-18 23:00:00 16 2 Noroeste 10 Sur 0 -- -- 63
2018-04-18 22:00:00 17.4 6 Sur 16 Sur 0 -- -- 64
2018-04-18 21:00:00 21.4 10 Sur 16 Sudeste 0 -- -- 48
2018-04-18 20:00:00 24.7 10 Sur 19 Sudoeste 0 -- -- 47
2018-04-18 19:00:00 26.9 4 Oeste 14 Sudoeste 0 -- -- 48
2018-04-18 18:00:00 27.3 9 Sudoeste 17 Sudoeste 0 -- -- 45
2018-04-18 17:00:00 26.7 3 Este 9 Sudeste 0 -- -- 49
2018-04-18 16:00:00 25.4 4 Sudeste 13 Sudeste 0 -- -- 46
2018-04-18 15:00:00 24 4 Nordeste 12 Nordeste 0 -- -- 48
2018-04-18 14:00:00 22.7 6 Norte 15 Nordeste 0 -- -- 57
2018-04-18 13:00:00 21.4 9 Nordeste 16 Nordeste 0 -- -- 61
2018-04-18 12:00:00 19.3 9 Nordeste 17 Nordeste 0 -- -- 66
2018-04-18 11:00:00 17 9 Nordeste 18 Nordeste 0 -- -- 76
2018-04-18 10:00:00 14.6 13 Nordeste 20 Nordeste 0 -- -- 80
2018-04-18 09:00:00 13.1 8 Nordeste 17 Nordeste 0 -- -- 87
2018-04-18 08:00:00 11.6 10 Nordeste 14 Nordeste 0 -- -- 95
2018-04-18 07:00:00 10.9 2 Norte 9 Norte 0 -- -- 92
2018-04-18 06:00:00 11.3 4 Norte 14 Norte 0 -- -- 91
2018-04-18 05:00:00 10.2 4 Norte 6 Nordeste 0 -- -- 88
2018-04-18 04:00:00 11.4 2 Sudoeste 8 Oeste 0 -- -- 81
2018-04-18 03:00:00 11.9 6 Oeste 8 Oeste 0 -- -- 86
2018-04-18 02:00:00 12.9 3 Sudoeste 8 Sur 0 -- -- 90
2018-04-18 01:00:00 13.7 5 Sudoeste -- -- 0 -- -- 89
2018-04-18 00:00:00 14.6 7 Sur 15 Sur 0 -- -- 81
2018-04-17 23:00:00 16.9 5 Noroeste 10 Noroeste 0 -- -- 63
2018-04-17 22:00:00 18.9 5 Noroeste 8 Noroeste 0 -- -- 59
2018-04-17 21:00:00 21.9 3 Oeste 9 Oeste 0 -- -- 53
2018-04-17 20:00:00 24.2 2 Nordeste 8 Nordeste 0 -- -- 45
2018-04-17 19:00:00 24.6 3 Sudeste 11 Este 0 -- -- 42
2018-04-17 18:00:00 24.3 5 Este 13 Este 0 -- -- 50
2018-04-17 17:00:00 23.6 4 Este 13 Nordeste 0 -- -- 47
2018-04-17 16:00:00 22.4 6 Nordeste 12 Nordeste 0 -- -- 48
2018-04-17 15:00:00 21.6 5 Nordeste 14 Nordeste 0 -- -- 54
2018-04-17 14:00:00 20.6 9 Nordeste 18 Este 0 -- -- 63
2018-04-17 13:00:00 19.3 12 Nordeste 24 Nordeste 0 -- -- 69
2018-04-17 12:00:00 17.8 16 Nordeste 24 Nordeste 0 -- -- 71
2018-04-17 11:00:00 15.7 15 Nordeste 23 Nordeste 0 -- -- 83
2018-04-17 10:00:00 13 12 Nordeste 22 Nordeste 0 -- -- 96
2018-04-17 09:00:00 10.8 8 Norte 17 Norte 0 -- -- 99
2018-04-17 08:00:00 8.9 4 Nordeste 11 Nordeste 0 -- -- 98
2018-04-17 07:00:00 10.4 7 Nordeste 12 Nordeste 0 -- -- 98
2018-04-17 06:00:00 10.2 9 Nordeste 15 Nordeste 0 -- -- 98
2018-04-17 05:00:00 9.3 4 Norte 12 Norte 0 -- -- 97
2018-04-17 04:00:00 10 6 Norte 8 Norte 0 -- -- 97
2018-04-17 03:00:00 10.1 3 Norte 5 Norte 0 -- -- 97
2018-04-17 02:00:00 10 3 Norte 8 Noroeste 0 -- -- 95
2018-04-17 01:00:00 10.7 4 Noroeste 8 Oeste 0 -- -- 92
2018-04-17 00:00:00 11.7 5 Oeste 14 Oeste 0 -- -- 88
2018-04-16 23:00:00 12 10 Oeste 14 Oeste 0 -- -- 88
2018-04-16 22:00:00 12.8 10 Oeste 15 Oeste 0 -- -- 85
2018-04-16 21:00:00 14.2 12 Oeste 25 Oeste 0 -- -- 81
2018-04-16 20:00:00 16.3 19 Oeste 26 Sudoeste 0 -- -- 69
2018-04-16 19:00:00 17.7 19 Sudoeste 24 Sudoeste 0 -- -- 63
2018-04-16 18:00:00 18.6 17 Sudoeste 26 Oeste 0 -- -- 59
2018-04-16 17:00:00 18.8 18 Sudoeste 26 Sudoeste 0 -- -- 56
2018-04-16 16:00:00 18.5 19 Sudoeste 30 Sudoeste 0 -- -- 61
2018-04-16 15:00:00 18.6 14 Sudoeste 23 Oeste 0 -- -- 64
2018-04-16 14:00:00 17.5 15 Oeste 22 Oeste 0 -- -- 66
2018-04-16 13:00:00 17 3 Este 16 Nordeste 0 -- -- 69
2018-04-16 12:00:00 16.2 7 Nordeste 12 Nordeste 0 -- -- 72
2018-04-16 11:00:00 14.2 5 Norte 10 Norte 0 -- -- 79
2018-04-16 10:00:00 12.1 5 Noroeste 11 Noroeste 0 -- -- 96
2018-04-16 09:00:00 9.4 4 Sudoeste 6 Sudoeste 0 -- -- 98
2018-04-16 08:00:00 7.7 0 Calma 7 Noroeste 0 -- -- 96
2018-04-16 07:00:00 8.9 3 Norte 12 Noroeste 0.2 -- -- 97
2018-04-16 06:00:00 9.1 4 Noroeste 8 Oeste 0 -- -- 97
2018-04-16 05:00:00 9.3 4 Oeste 10 Oeste 0 -- -- 96
2018-04-16 04:00:00 9.7 7 Oeste 12 Oeste 0 -- -- 95
2018-04-16 03:00:00 10.2 6 Oeste 9 Oeste 0 -- -- 95
2018-04-16 02:00:00 11.6 4 Oeste 5 Oeste 0 -- -- 95
2018-04-16 01:00:00 11.9 3 Noroeste 23 Noroeste 0.4 -- -- 95
2018-04-16 00:00:00 13 8 Noroeste 30 Noroeste 0.8 -- -- 93
2018-04-15 23:00:00 15.4 20 Sudoeste 31 Sudoeste 0 -- -- 93
2018-04-15 22:00:00 15.3 19 Sudoeste 32 Sudoeste 0 -- -- 92
2018-04-15 21:00:00 15.2 20 Sudoeste 32 Sudoeste 0 -- -- 92
2018-04-15 20:00:00 15.5 23 Sudoeste 34 Sudoeste 0 -- -- 90
2018-04-15 19:00:00 15.9 24 Sudoeste 34 Sudoeste 0 -- -- 87
2018-04-15 18:00:00 16.3 19 Sudoeste 30 Sudoeste 0 -- -- 84
2018-04-15 17:00:00 16.8 23 Sudoeste 35 Sudoeste 0 -- -- 81
2018-04-15 16:00:00 18 22 Sudoeste 32 Sudoeste 0 -- -- 74
2018-04-15 15:00:00 17.7 23 Sudoeste 32 Sudoeste 0 -- -- 75
2018-04-15 14:00:00 17.3 20 Sudoeste 30 Sudoeste 0 -- -- 76
2018-04-15 13:00:00 17.8 18 Sudoeste 27 Sudoeste 0 -- -- 73
2018-04-15 12:00:00 16.7 15 Sudoeste 26 Sudoeste 0 -- -- 76
2018-04-15 11:00:00 15.8 14 Sudoeste 22 Sudoeste 0 -- -- 82
2018-04-15 10:00:00 14.3 14 Sudoeste 18 Sudoeste 0 -- -- 92
2018-04-15 09:00:00 11.5 0 Calma 3 Sur 0 -- -- 97
2018-04-15 08:00:00 9.4 2 Sudoeste 6 Noroeste 0 -- -- 95
2018-04-15 07:00:00 9.6 4 Oeste 6 Oeste 0 -- -- 94
2018-04-15 06:00:00 10 4 Oeste 7 Oeste 0 -- -- 94
2018-04-15 05:00:00 10.4 5 Oeste 13 Noroeste 0 -- -- 91
2018-04-15 04:00:00 10.7 10 Oeste 17 Oeste 0 -- -- 90
2018-04-15 03:00:00 11 10 Oeste 17 Oeste 0 -- -- 90
2018-04-15 02:00:00 12.3 4 Noroeste 11 Oeste 0 -- -- 89
2018-04-15 01:00:00 13.2 10 Oeste 20 Oeste 0 -- -- 89
2018-04-15 00:00:00 13.2 13 Oeste 19 Oeste 0 -- -- 88
2018-04-14 23:00:00 13.4 12 Oeste 20 Oeste 0 -- -- 88
2018-04-14 22:00:00 13.8 12 Oeste 22 Oeste 0 -- -- 87
2018-04-14 21:00:00 14.7 17 Oeste 31 Oeste 0 -- -- 83
2018-04-14 20:00:00 16.2 21 Oeste 35 Sudoeste 0 -- -- 76
2018-04-14 19:00:00 17 26 Oeste 34 Oeste 0 -- -- 75
2018-04-14 18:00:00 18.3 25 Oeste 34 Sudoeste 0 -- -- 69
2018-04-14 17:00:00 19 24 Oeste 32 Oeste 0 -- -- 65
2018-04-14 16:00:00 19 21 Sudoeste 32 Oeste 0 -- -- 63
2018-04-14 15:00:00 18.4 19 Sudoeste 26 Sudoeste 0 -- -- 68
2018-04-14 14:00:00 18.5 15 Sudoeste 25 Oeste 0 -- -- 67
2018-04-14 13:00:00 17.9 7 Sudoeste 15 Sudoeste 0 -- -- 70
2018-04-14 12:00:00 16.3 4 Este 9 Este 0 -- -- 71
2018-04-14 11:00:00 13.7 3 Nordeste 9 Norte 0 -- -- 75
2018-04-14 10:00:00 10.6 5 Norte 9 Norte 0 -- -- 96
2018-04-14 09:00:00 8.3 4 Norte 8 Norte 0 -- -- 98
2018-04-14 08:00:00 5.9 0 Calma 5 Sudoeste 0 -- -- 96
2018-04-14 07:00:00 6.5 2 Nordeste 6 Norte 0 -- -- 94
2018-04-14 06:00:00 7.9 4 Norte 9 Norte 0 -- -- 94
2018-04-14 05:00:00 7.7 3 Noroeste 9 Noroeste 0 -- -- 94
2018-04-14 04:00:00 8.9 4 Norte 8 Norte 0 -- -- 96
2018-04-14 03:00:00 9 3 Norte 5 Norte 0 -- -- 95
2018-04-14 02:00:00 8.9 0 Calma 9 Oeste 0 -- -- 92
2018-04-14 01:00:00 10.2 5 Noroeste 9 Oeste 0 -- -- 89
2018-04-14 00:00:00 11.5 4 Nordeste 12 Nordeste 0 -- -- 87
2018-04-13 23:00:00 12.5 4 Noroeste 8 Noroeste 0 -- -- 82
2018-04-13 22:00:00 12.8 4 Noroeste 9 Noroeste 0 -- -- 81
2018-04-13 21:00:00 13.3 6 Noroeste 13 Nordeste 0 -- -- 75
2018-04-13 20:00:00 15.6 7 Nordeste 17 Nordeste 0 -- -- 66
2018-04-13 19:00:00 15.4 11 Nordeste 26 Nordeste 0 -- -- 68
2018-04-13 18:00:00 15.7 11 Norte 26 Norte 0 -- -- 66
2018-04-13 17:00:00 15.2 15 Nordeste 27 Norte 0 -- -- 70
2018-04-13 16:00:00 14.5 15 Norte 37 Nordeste 0 -- -- 70
2018-04-13 15:00:00 14 19 Norte 37 Nordeste 0 -- -- 78
2018-04-13 14:00:00 12.6 22 Nordeste 39 Nordeste 0 -- -- 82
2018-04-13 13:00:00 11.5 26 Nordeste 47 Nordeste 0 -- -- 87
2018-04-13 12:00:00 10.5 26 Nordeste 43 Nordeste 0 -- -- 91
2018-04-13 11:00:00 11.7 26 Nordeste 37 Nordeste 0 -- -- 94
2018-04-13 10:00:00 9.8 17 Este 42 Este 3 -- -- 96
2018-04-13 09:00:00 9.6 13 Nordeste 27 Sur 4.8 -- -- 95
2018-04-13 08:00:00 9.7 16 Sur 45 Sudoeste 6.6 -- -- 94
2018-04-13 07:00:00 11.6 22 Oeste 38 Oeste 0 -- -- 86
2018-04-13 06:00:00 10.5 14 Sudoeste 24 Sur 0.2 -- -- 90
2018-04-13 05:00:00 9.7 8 Sudoeste 21 Sudoeste 0 -- -- 88
2018-04-13 04:00:00 10.3 14 Sudoeste 22 Sudoeste 0 -- -- 91
2018-04-13 03:00:00 10.3 9 Oeste 39 Sudoeste 1 -- -- 90
2018-04-13 02:00:00 11.5 17 Oeste 24 Oeste 0 -- -- 80
2018-04-13 01:00:00 11 10 Oeste 21 Oeste 0 -- -- 84
2018-04-13 00:00:00 12.4 12 Oeste 35 Oeste 0 -- -- 76
2018-04-12 23:00:00 12.7 22 Oeste 40 Oeste 0 -- -- 79
2018-04-12 22:00:00 13 25 Oeste 42 Oeste 0 -- -- 79
2018-04-12 21:00:00 13.2 26 Oeste 42 Oeste 0 -- -- 77
2018-04-12 20:00:00 14.1 27 Oeste 41 Oeste 0 -- -- 76
2018-04-12 19:00:00 14.8 26 Oeste 40 Oeste 0 -- -- 81
2018-04-12 18:00:00 12.9 18 Sudoeste 42 Sudoeste 0.6 -- -- 93
2018-04-12 17:00:00 11.9 21 Sudoeste 33 Sudoeste 0.4 -- -- 95
2018-04-12 16:00:00 12 18 Oeste 69 Sudoeste 6 -- -- 96
2018-04-12 15:00:00 13.3 40 Sudoeste 58 Sur 6 -- -- 95
2018-04-12 14:00:00 13.7 27 Sudoeste 50 Sur 2.2 -- -- 93
2018-04-12 13:00:00 14.9 30 Sur 55 Sudoeste 0.4 -- -- 82
2018-04-12 12:00:00 14.9 22 Sudoeste 32 Sur 0 -- -- 82
2018-04-12 11:00:00 13.4 10 Sudoeste 24 Sudoeste 0.4 -- -- 91
2018-04-12 10:00:00 13.2 14 Sudoeste 19 Sudoeste 0 -- -- 87
2018-04-12 09:00:00 10.9 4 Sudoeste 10 Oeste 0 -- -- 95
2018-04-12 08:00:00 9.2 6 Oeste 9 Oeste 0 -- -- 90
2018-04-12 07:00:00 10.2 6 Oeste 14 Noroeste 0 -- -- 86
2018-04-12 06:00:00 10.9 8 Oeste 13 Oeste 0 -- -- 88
2018-04-12 05:00:00 11.8 7 Oeste 14 Oeste 0 -- -- 86
2018-04-12 04:00:00 11.8 9 Oeste 17 Oeste 0 -- -- 83
2018-04-12 03:00:00 10.9 9 Oeste 16 Oeste 0 -- -- 83
2018-04-12 02:00:00 10.8 7 Oeste 22 Oeste 0 -- -- 78
2018-04-12 01:00:00 11 13 Oeste 24 Oeste 0 -- -- 76
2018-04-12 00:00:00 11.2 11 Oeste 21 Oeste 0 -- -- 73
2018-04-11 23:00:00 10.6 8 Oeste 12 Oeste 0 -- -- 74
2018-04-11 22:00:00 12.8 7 Oeste 30 Oeste 0 -- -- 71
2018-04-11 21:00:00 14.3 21 Oeste 40 Oeste 0 -- -- 73
2018-04-11 20:00:00 15.8 27 Oeste 47 Oeste 0 -- -- 66
2018-04-11 19:00:00 16.7 29 Oeste 45 Oeste 0 -- -- 64
2018-04-11 18:00:00 16.6 34 Sudoeste 51 Sudoeste 0 -- -- 63
2018-04-11 17:00:00 16.9 33 Sudoeste 49 Sudoeste 0 -- -- 57
2018-04-11 16:00:00 17.1 35 Oeste 52 Oeste 0 -- -- 54
2018-04-11 15:00:00 16.7 33 Oeste 49 Oeste 0 -- -- 54
2018-04-11 14:00:00 16 35 Oeste 49 Sudoeste 0 -- -- 55
2018-04-11 13:00:00 15.4 24 Noroeste 45 Noroeste 0 -- -- 53
2018-04-11 12:00:00 14.3 22 Noroeste 40 Noroeste 0 -- -- 57
2018-04-11 11:00:00 12.9 19 Noroeste 40 Noroeste 0 -- -- 63
2018-04-11 10:00:00 10.9 21 Noroeste 43 Noroeste 0 -- -- 73
2018-04-11 09:00:00 9.6 17 Oeste 38 Oeste 0 -- -- 79
2018-04-11 08:00:00 9.5 22 Oeste 43 Oeste 0 -- -- 78
2018-04-11 07:00:00 9.8 19 Oeste 45 Oeste 0 -- -- 78
2018-04-11 06:00:00 10.5 26 Oeste 46 Oeste 0 -- -- 74
2018-04-11 05:00:00 10.7 19 Oeste 45 Oeste 0 -- -- 74
2018-04-11 04:00:00 11.1 25 Oeste 38 Oeste 0 -- -- 74
2018-04-11 03:00:00 10.9 26 Oeste 44 Oeste 0 -- -- 74
2018-04-11 02:00:00 11.1 22 Oeste 54 Noroeste 0 -- -- 70
2018-04-11 01:00:00 11.6 29 Oeste 47 Oeste 0 -- -- 70
2018-04-11 00:00:00 10.9 19 Oeste 42 Oeste 0 -- -- 74
2018-04-10 23:00:00 11.5 22 Oeste 46 Oeste 0 -- -- 66
2018-04-10 22:00:00 11.8 21 Oeste 49 Oeste 0 -- -- 71
2018-04-10 21:00:00 12.2 24 Oeste 39 Oeste 0 -- -- 73
2018-04-10 20:00:00 13 21 Oeste 45 Oeste 0 -- -- 75
2018-04-10 19:00:00 14.2 28 Oeste 54 Sudoeste 0 -- -- 84
2018-04-10 18:00:00 14.2 35 Oeste 53 Oeste 0.2 -- -- 93
2018-04-10 17:00:00 13.3 30 Oeste 48 Oeste 6.6 -- -- 96
2018-04-10 16:00:00 14 33 Oeste 59 Oeste 4.6 -- -- 96
2018-04-10 15:00:00 14.3 34 Oeste 70 Sudoeste 11.4 -- -- 97
2018-04-10 14:00:00 13.5 48 Sudoeste 70 Sudoeste 0.8 -- -- 94
2018-04-10 13:00:00 13.1 41 Sudoeste 68 Sudoeste 2 -- -- 95
2018-04-10 12:00:00 12.8 38 Sudoeste 57 Sudoeste 1.6 -- -- 93
2018-04-10 11:00:00 12.7 32 Sudoeste 47 Sudoeste 1 -- -- 91
2018-04-10 10:00:00 13 30 Sudoeste 41 Sudoeste 0 -- -- 82
2018-04-10 09:00:00 12.3 23 Sudoeste 35 Sudoeste 0 -- -- 78
2018-04-10 08:00:00 8.6 8 Sudoeste 11 Sudoeste 0 -- -- 96
2018-04-10 07:00:00 7 4 Oeste 6 Sudoeste 0 -- -- 93
2018-04-10 06:00:00 6.7 3 Sudoeste 11 Oeste 0 -- -- 88
2018-04-10 05:00:00 7.8 5 Oeste 12 Noroeste 0 -- -- 83
2018-04-10 04:00:00 7.5 8 Oeste 10 Oeste 0 -- -- 88
2018-04-10 03:00:00 9.7 7 Oeste 14 Oeste 0 -- -- 80
2018-04-10 02:00:00 10.4 8 Oeste 14 Oeste 0 -- -- 81
2018-04-10 01:00:00 11.9 10 Oeste 24 Oeste 0 -- -- 80
2018-04-10 00:00:00 11.8 13 Oeste 20 Sudoeste 0 -- -- 78
2018-04-09 23:00:00 11.7 9 Oeste 22 Sudoeste 0 -- -- 78
2018-04-09 22:00:00 12.6 13 Oeste 21 Sudoeste 0 -- -- 72
2018-04-09 21:00:00 13.2 12 Sudoeste 25 Sudoeste 0 -- -- 69
2018-04-09 20:00:00 15 19 Sudoeste 32 Sudoeste 0 -- -- 60
2018-04-09 19:00:00 16.1 22 Sudoeste 35 Sudoeste 0 -- -- 56
2018-04-09 18:00:00 16.5 23 Sudoeste 39 Sudoeste 0 -- -- 58
2018-04-09 17:00:00 16.4 22 Sudoeste 36 Oeste 0 -- -- 61
2018-04-09 16:00:00 16.4 21 Sudoeste 35 Sudoeste 0 -- -- 60
2018-04-09 15:00:00 15.9 19 Sudoeste 34 Sudoeste 0 -- -- 59
2018-04-09 14:00:00 15.1 18 Oeste 36 Sudoeste 0 -- -- 59
2018-04-09 13:00:00 14.6 19 Sudoeste 32 Sur 0 -- -- 61
2018-04-09 12:00:00 13.8 15 Sudoeste 27 Sudoeste 0 -- -- 65
2018-04-09 11:00:00 12.2 16 Sudoeste 23 Sudoeste 0 -- -- 72
2018-04-09 10:00:00 9.6 6 Oeste 12 Noroeste 0 -- -- 86
2018-04-09 09:00:00 6.4 3 Noroeste 9 Noroeste 0 -- -- 92
2018-04-09 08:00:00 5.8 5 Noroeste 12 Noroeste 0 -- -- 91
2018-04-09 07:00:00 6.5 6 Noroeste 11 Noroeste 0 -- -- 91
2018-04-09 06:00:00 7.3 5 Noroeste 16 Oeste 0 -- -- 89
2018-04-09 05:00:00 8.3 6 Noroeste 19 Noroeste 1.2 -- -- 90
2018-04-09 04:00:00 8.5 6 Noroeste 26 Oeste 2.2 -- -- 89
2018-04-09 03:00:00 9 8 Oeste 16 Noroeste 0 -- -- 86
2018-04-09 02:00:00 9.3 9 Noroeste 23 Oeste 0 -- -- 87
2018-04-09 01:00:00 9.8 11 Oeste 23 Oeste 0 -- -- 89
2018-04-09 00:00:00 9.6 8 Oeste 12 Oeste 0 -- -- 92
2018-04-08 23:00:00 10 7 Oeste 50 Oeste 3 -- -- 91
2018-04-08 22:00:00 13.5 30 Oeste 48 Sudoeste 0.2 -- -- 82
2018-04-08 21:00:00 14.8 32 Sudoeste 52 Sudoeste 0 -- -- 73
2018-04-08 20:00:00 15.2 32 Sudoeste 48 Sudoeste 0 -- -- 70
2018-04-08 19:00:00 16.9 32 Sudoeste 46 Sudoeste 0 -- -- 66
2018-04-08 18:00:00 17.4 33 Sudoeste 45 Sudoeste 0 -- -- 63
2018-04-08 17:00:00 17.5 34 Sudoeste 44 Sudoeste 0 -- -- 65
2018-04-08 16:00:00 17.5 30 Sudoeste 40 Sudoeste 0 -- -- 62
2018-04-08 15:00:00 17.2 26 Sudoeste 39 Sudoeste 0 -- -- 65
2018-04-08 14:00:00 17.2 26 Sudoeste 35 Sudoeste 0 -- -- 65
2018-04-08 13:00:00 15.7 12 Oeste 28 Oeste 0 -- -- 68
2018-04-08 12:00:00 15.1 14 Oeste 25 Oeste 0 -- -- 70
2018-04-08 11:00:00 13.6 11 Noroeste 22 Oeste 0 -- -- 78
2018-04-08 10:00:00 11.1 13 Noroeste 23 Noroeste 0 -- -- 95
2018-04-08 09:00:00 8.3 9 Oeste 14 Oeste 0 -- -- 98
2018-04-08 08:00:00 6.7 8 Oeste 10 Noroeste 0 -- -- 95
2018-04-08 07:00:00 7.7 6 Oeste 12 Oeste 0 -- -- 96
2018-04-08 06:00:00 8.6 7 Noroeste 15 Noroeste 0 -- -- 95
2018-04-08 05:00:00 8.4 6 Oeste 14 Oeste 0 -- -- 95
2018-04-08 04:00:00 8.3 6 Noroeste 10 Oeste 0 -- -- 94
2018-04-08 03:00:00 8.4 5 Oeste 8 Noroeste 0 -- -- 92
2018-04-08 02:00:00 10.4 3 Noroeste 8 Norte 0 -- -- 89
2018-04-08 01:00:00 11.6 3 Norte 10 Nordeste 0 -- -- 88
2018-04-08 00:00:00 11.6 3 Norte 11 Noroeste 0 -- -- 87
2018-04-07 23:00:00 12.7 8 Noroeste 22 Oeste 0.2 -- -- 85
2018-04-07 22:00:00 12.6 14 Oeste 27 Oeste 0 -- -- 85
2018-04-07 21:00:00 12.6 15 Oeste 38 Sudoeste 0.2 -- -- 87
2018-04-07 20:00:00 13.6 13 Sudoeste 41 Sudoeste 0.6 -- -- 88
2018-04-07 19:00:00 16.2 27 Sudoeste 37 Sudoeste 0 -- -- 67
2018-04-07 18:00:00 17.2 25 Sudoeste 38 Sudoeste 0 -- -- 62
2018-04-07 17:00:00 16.8 27 Sudoeste 42 Sudoeste 0 -- -- 65
2018-04-07 16:00:00 15.5 25 Sudoeste 46 Oeste 0 -- -- 68
2018-04-07 15:00:00 17.5 26 Sudoeste 38 Sudoeste 0 -- -- 70
2018-04-07 14:00:00 16.4 23 Sudoeste 35 Sudoeste 0 -- -- 72
2018-04-07 13:00:00 15.4 22 Sudoeste 34 Sudoeste 0 -- -- 74
2018-04-07 12:00:00 14.4 17 Sudoeste 24 Sur 0 -- -- 81
2018-04-07 11:00:00 12.2 9 Sur 14 Sur 0 -- -- 94
2018-04-07 10:00:00 10.5 8 Sur 12 Sur 0 -- -- 97
2018-04-07 09:00:00 9.8 0 Calma 4 Sur 0 -- -- 96
2018-04-07 08:00:00 9.8 2 Noroeste 6 Noroeste 0 -- -- 96
2018-04-07 07:00:00 10.1 4 Noroeste 11 Nordeste 0 -- -- 95
2018-04-07 06:00:00 10.1 3 Este 7 Este 0.8 -- -- 94
2018-04-07 05:00:00 10.2 2 Este 9 Oeste 1.2 -- -- 94
2018-04-07 04:00:00 10.5 5 Noroeste 22 Noroeste 1.2 -- -- 92
2018-04-07 03:00:00 11.8 12 Noroeste 26 Noroeste 0.4 -- -- 94
2018-04-07 02:00:00 12.5 0 Calma 6 Oeste 1.2 -- -- 96
2018-04-07 01:00:00 12.6 3 Noroeste 18 Oeste 2.4 -- -- 95
2018-04-07 00:00:00 13.5 6 Oeste 13 Oeste 0.6 -- -- 95
2018-04-06 23:00:00 13.5 8 Oeste 21 Oeste 1.2 -- -- 95
2018-04-06 22:00:00 14.3 11 Oeste 25 Sudoeste 1.6 -- -- 93
2018-04-06 21:00:00 16 17 Sur 24 Sudoeste 0 -- -- 84
2018-04-06 20:00:00 16.6 19 Sudoeste 29 Sudoeste 0 -- -- 79
2018-04-06 19:00:00 17.8 19 Sudoeste 37 Sudoeste 0 -- -- 73
2018-04-06 18:00:00 18.4 27 Oeste 44 Sudoeste 0 -- -- 67
2018-04-06 17:00:00 19 29 Oeste 43 Sudoeste 0 -- -- 68
2018-04-06 16:00:00 19.8 22 Sudoeste 37 Sudoeste 0 -- -- 76
2018-04-06 15:00:00 19.9 27 Sur 44 Sur 0 -- -- 73
2018-04-06 14:00:00 20 28 Sur 38 Sur 0 -- -- 70
2018-04-06 13:00:00 19.1 22 Sur 33 Sur 0 -- -- 71
2018-04-06 12:00:00 18.7 8 Sudeste 19 Sudeste 0 -- -- 62
2018-04-06 11:00:00 16.6 4 Sudeste 10 Sudeste 0 -- -- 72
2018-04-06 10:00:00 12.1 0 Calma 6 Sudeste 0 -- -- 96
2018-04-06 09:00:00 8.3 0 Calma 4 Nordeste 0 -- -- 94
2018-04-06 08:00:00 8.2 2 Nordeste 9 Este 0 -- -- 91
2018-04-06 07:00:00 8.6 5 Noroeste 9 Norte 0 -- -- 87
2018-04-06 06:00:00 9.2 3 Norte 7 Norte 0 -- -- 86
2018-04-06 05:00:00 10.3 4 Norte 9 Norte 0 -- -- 88
2018-04-06 04:00:00 10.1 3 Nordeste 8 Sudoeste 0 -- -- 86
2018-04-06 03:00:00 9.3 6 Sudoeste 8 Sudoeste 0 -- -- 80
2018-04-06 02:00:00 11.4 3 Sudoeste 8 Sudoeste 0 -- -- 72
2018-04-06 01:00:00 11.6 8 Sudoeste 9 Sudoeste 0 -- -- 74
2018-04-06 00:00:00 12.7 6 Sudoeste 9 Sudoeste 0 -- -- 74
2018-04-05 23:00:00 14.7 4 Oeste 10 Oeste 0 -- -- 79
2018-04-05 22:00:00 15.4 6 Oeste 12 Oeste 0 -- -- 78
2018-04-05 21:00:00 17.7 8 Oeste 21 Sudoeste 0 -- -- 72
2018-04-05 20:00:00 22.7 7 Sudoeste 15 Sudoeste 0 -- -- 50
2018-04-05 19:00:00 24 5 Nordeste 13 Nordeste 0 -- -- 41
2018-04-05 18:00:00 23.8 6 Norte 17 Nordeste 0 -- -- 40
2018-04-05 17:00:00 23.7 8 Nordeste 19 Nordeste 0 -- -- 41
2018-04-05 16:00:00 23 9 Nordeste 19 Norte 0 -- -- 45
2018-04-05 15:00:00 21.6 6 Norte 16 Este 0 -- -- 48
2018-04-05 14:00:00 21 9 Nordeste 20 Nordeste 0 -- -- 52
2018-04-05 13:00:00 19.1 16 Nordeste 21 Nordeste 0 -- -- 61
2018-04-05 12:00:00 17 14 Nordeste 24 Nordeste 0 -- -- 75
2018-04-05 11:00:00 14.7 16 Nordeste 24 Nordeste 0 -- -- 84
2018-04-05 10:00:00 12.2 12 Nordeste 21 Nordeste 0 -- -- 94
2018-04-05 09:00:00 10.4 9 Nordeste 20 Nordeste 0 -- -- 97
2018-04-05 08:00:00 10.2 10 Nordeste 19 Nordeste 0 -- -- 98
2018-04-05 07:00:00 10.6 9 Nordeste 20 Norte 0 -- -- 98
2018-04-05 06:00:00 11.1 8 Nordeste 16 Nordeste 0 -- -- 98
2018-04-05 05:00:00 9.3 4 Norte 7 Norte 0 -- -- 97
2018-04-05 04:00:00 9.6 3 Norte 4 Norte 0 -- -- 97
2018-04-05 03:00:00 10.8 3 Norte 6 Nordeste 0 -- -- 96
2018-04-05 02:00:00 10.9 4 Norte 6 Norte 0 -- -- 95
2018-04-05 01:00:00 10.8 0 Calma 3 Norte 0 -- -- 94
2018-04-05 00:00:00 12 3 Este 9 Oeste 0 -- -- 94
2018-04-04 23:00:00 11.8 8 Oeste 9 Sudoeste 0 -- -- 90
2018-04-04 22:00:00 13.2 9 Oeste 17 Oeste 0 -- -- 87
2018-04-04 21:00:00 14.7 14 Oeste 27 Oeste 0 -- -- 83
2018-04-04 20:00:00 16.7 20 Sudoeste 28 Oeste 0 -- -- 75
2018-04-04 19:00:00 18.4 21 Sudoeste 30 Oeste 0 -- -- 66
2018-04-04 18:00:00 19 22 Sudoeste 34 Sudoeste 0 -- -- 65
2018-04-04 17:00:00 19.1 25 Sudoeste 33 Sudoeste 0 -- -- 65
2018-04-04 16:00:00 19.1 25 Sudoeste 34 Oeste 0 -- -- 62
2018-04-04 15:00:00 19.2 23 Sudoeste 31 Sudoeste 0 -- -- 61
2018-04-04 14:00:00 18.9 22 Sudoeste 31 Sudoeste 0 -- -- 62
2018-04-04 13:00:00 18.7 19 Oeste 30 Oeste 0 -- -- 63
2018-04-04 12:00:00 17.5 20 Oeste 29 Oeste 0 -- -- 65
2018-04-04 11:00:00 16.5 21 Oeste 32 Oeste 0 -- -- 71
2018-04-04 10:00:00 15.1 16 Oeste 22 Oeste 0 -- -- 77
2018-04-04 09:00:00 12.5 8 Oeste 17 Oeste 0 -- -- 90
2018-04-04 08:00:00 13.1 11 Oeste 19 Oeste 0 -- -- 86
2018-04-04 07:00:00 13 10 Oeste 18 Sudoeste 0 -- -- 93
2018-04-04 06:00:00 11.7 9 Oeste 15 Oeste 0 -- -- 91
2018-04-04 05:00:00 13.4 8 Oeste 27 Oeste 0 -- -- 86
2018-04-04 04:00:00 14.6 18 Oeste 29 Oeste 0 -- -- 84
2018-04-04 03:00:00 14.3 12 Sudoeste 24 Sudoeste 0 -- -- 87
2018-04-04 02:00:00 14.5 14 Oeste 32 Oeste 0 -- -- 86
2018-04-04 01:00:00 14.6 17 Oeste 30 Oeste 0 -- -- 84
2018-04-04 00:00:00 14.7 19 Sudoeste 30 Sudoeste 0 -- -- 84
2018-04-03 23:00:00 14.7 18 Sudoeste 28 Sudoeste 0 -- -- 82
2018-04-03 22:00:00 14.9 18 Sudoeste 26 Sudoeste 0 -- -- 87
2018-04-03 21:00:00 15.6 17 Sudoeste 29 Sudoeste 0 -- -- 84
2018-04-03 20:00:00 16.5 19 Sudoeste 32 Oeste 0 -- -- 82
2018-04-03 19:00:00 18.3 24 Sudoeste 38 Sudoeste 0 -- -- 74
2018-04-03 18:00:00 19.1 25 Sudoeste 35 Sudoeste 0 -- -- 72
2018-04-03 17:00:00 19.2 25 Sudoeste 36 Sudoeste 0 -- -- 71
2018-04-03 16:00:00 19.5 23 Sudoeste 39 Sudoeste 0 -- -- 72
2018-04-03 15:00:00 19.5 22 Oeste 34 Oeste 0 -- -- 71
2018-04-03 14:00:00 18.9 20 Sudoeste 33 Sudoeste 0 -- -- 74
2018-04-03 13:00:00 18.8 19 Sudoeste 28 Sudoeste 0 -- -- 74
2018-04-03 12:00:00 18.3 18 Oeste 26 Sudoeste 0 -- -- 74
2018-04-03 11:00:00 17.2 16 Sudoeste 27 Sur 0 -- -- 76
2018-04-03 10:00:00 16 11 Sudoeste 17 Sur 0 -- -- 99
2018-04-03 09:00:00 12.9 4 Sur 9 Sur 0 -- -- 98
2018-04-03 08:00:00 11.4 5 Sudoeste 8 Sur 0 -- -- 97
2018-04-03 07:00:00 12.7 2 Sudoeste 6 Sudoeste 0 -- -- 97
2018-04-03 06:00:00 12.9 4 Sur 6 Sudoeste 0 -- -- 97
2018-04-03 05:00:00 12.9 6 Sudoeste 10 Oeste 0 -- -- 96
2018-04-03 04:00:00 13.5 7 Oeste 12 Sudoeste 0 -- -- 96
2018-04-03 03:00:00 13.9 8 Oeste 13 Sudoeste 0 -- -- 96
2018-04-03 02:00:00 14.4 10 Sudoeste 15 Oeste 0 -- -- 95
2018-04-03 01:00:00 15.1 11 Sudoeste 15 Sudoeste 0 -- -- 94
2018-04-03 00:00:00 15.3 10 Sudoeste 20 Sudoeste 0 -- -- 93
2018-04-02 23:00:00 15.7 14 Sudoeste 25 Sudoeste 0 -- -- 91
2018-04-02 22:00:00 15.8 15 Sudoeste 27 Sudoeste 0 -- -- 90
2018-04-02 21:00:00 15.9 14 Sudoeste 25 Sudoeste 0 -- -- 88
2018-04-02 20:00:00 16.8 16 Sudoeste 31 Sudoeste 0 -- -- 84
2018-04-02 19:00:00 18.4 21 Sudoeste 33 Sudoeste 0 -- -- 75
2018-04-02 18:00:00 19.1 24 Sudoeste 35 Sur 0 -- -- 71
2018-04-02 17:00:00 19.5 21 Sudoeste 34 Sur 0 -- -- 70
2018-04-02 16:00:00 19.8 21 Sudoeste 38 Sudoeste 0 -- -- 67
2018-04-02 15:00:00 19.4 19 Sudoeste 32 Sudoeste 0 -- -- 68
2018-04-02 14:00:00 19.1 20 Sudoeste 35 Sudoeste 0 -- -- 67
2018-04-02 13:00:00 18 18 Sudoeste 30 Sudoeste 0 -- -- 71
2018-04-02 12:00:00 18 21 Sur 39 Sudoeste 0 -- -- 72
2018-04-02 11:00:00 17.8 23 Sur 35 Sur 0 -- -- 77
2018-04-02 10:00:00 15.6 19 Sur 30 Sur 0 -- -- 83
2018-04-02 09:00:00 13.1 11 Sur 18 Sudeste 0 -- -- 92
2018-04-02 08:00:00 12.2 11 Sur 19 Sur 0 -- -- 89
2018-04-02 07:00:00 10.8 7 Sudeste 15 Sur 0 -- -- 91
2018-04-02 06:00:00 9.9 7 Sur 11 Sudeste 0 -- -- 83
2018-04-02 05:00:00 11.7 7 Sur 11 Sudeste 0 -- -- 80
2018-04-02 04:00:00 12.5 6 Sudeste 15 Sur 0 -- -- 75
2018-04-02 03:00:00 13.2 3 Sudeste 30 Sudeste 0 -- -- 66
2018-04-02 02:00:00 13.6 10 Sudeste 23 Sudeste 0 -- -- 59
2018-04-02 01:00:00 13.6 14 Sur 24 Sur 0 -- -- 53
2018-04-02 00:00:00 13.3 11 Sur 17 Sur 0 -- -- 54
2018-04-01 23:00:00 13.8 10 Sur 15 Sur 0 -- -- 54
2018-04-01 22:00:00 14.9 9 Sur 16 Sur 0 -- -- 55
2018-04-01 21:00:00 16.2 8 Sur 15 Sudeste 0 -- -- 57
2018-04-01 20:00:00 18.1 9 Sudoeste 17 Sudoeste 0 -- -- 61
2018-04-01 19:00:00 20.8 13 Sudoeste 17 Sudoeste 0 -- -- 50
2018-04-01 18:00:00 21.6 2 Este 7 Nordeste 0 -- -- 46
2018-04-01 17:00:00 21.3 2 Nordeste 9 Este 0 -- -- 47
2018-04-01 16:00:00 20.9 5 Este 13 Nordeste 0 -- -- 50
2018-04-01 15:00:00 20.4 6 Este 14 Este 0 -- -- 50
2018-04-01 14:00:00 18.3 7 Nordeste 14 Nordeste 0 -- -- 58
2018-04-01 13:00:00 16 8 Nordeste 16 Nordeste 0 -- -- 62
2018-04-01 12:00:00 14.4 10 Nordeste 17 Nordeste 0 -- -- 70
2018-04-01 11:00:00 12.3 10 Nordeste 23 Nordeste 0 -- -- 77
2018-04-01 10:00:00 10.2 7 Nordeste 19 Norte 0 -- -- 89
2018-04-01 09:00:00 9.3 12 Nordeste 22 Nordeste 0 -- -- 92
2018-04-01 08:00:00 9.3 13 Nordeste 24 Nordeste 0 -- -- 93
2018-04-01 07:00:00 9.1 16 Nordeste 23 Nordeste 0 -- -- 96
2018-04-01 06:00:00 9.1 9 Nordeste 15 Nordeste 0 -- -- 96
2018-04-01 05:00:00 7.8 5 Norte 11 Norte 0 -- -- 96
2018-04-01 04:00:00 7.5 3 Norte 5 Norte 0 -- -- 95
2018-04-01 03:00:00 7.5 0 Calma 5 Nordeste 0 -- -- 91
2018-04-01 02:00:00 8.2 2 Nordeste 5 Nordeste 0 -- -- 90
2018-04-01 01:00:00 9.1 2 Norte 6 Norte 0 -- -- 87
2018-04-01 00:00:00 8.9 0 Calma 5 Noroeste 0 -- -- 84
2018-03-31 23:00:00 10 0 Calma 5 Sudeste 0 -- -- 82
2018-03-31 22:00:00 11.9 4 Noroeste 14 Oeste 0 -- -- 73
2018-03-31 21:00:00 13.1 9 Oeste 24 Sudoeste 0 -- -- 70
2018-03-31 20:00:00 15.4 18 Oeste 24 Oeste 0 -- -- 61
2018-03-31 19:00:00 16.6 19 Sudoeste 27 Sudoeste 0 -- -- 58
2018-03-31 18:00:00 17.3 19 Sudoeste 29 Sudoeste 0 -- -- 56
2018-03-31 17:00:00 17.5 20 Sudoeste 29 Sur 0 -- -- 56
2018-03-31 16:00:00 18 18 Sudoeste 27 Sudoeste 0 -- -- 56
2018-03-31 15:00:00 16.8 21 Sudoeste 30 Sur 0 -- -- 57
2018-03-31 14:00:00 16.8 9 Sudoeste 18 Sudoeste 0 -- -- 61
2018-03-31 13:00:00 15.7 5 Norte 18 Nordeste 0 -- -- 49
2018-03-31 12:00:00 14.9 10 Noroeste 21 Noroeste 0 -- -- 59
2018-03-31 11:00:00 13.5 9 Noroeste 21 Noroeste 0 -- -- 67
2018-03-31 10:00:00 10.7 6 Noroeste 13 Oeste 0 -- -- 88
2018-03-31 09:00:00 7.7 7 Noroeste 12 Noroeste 0 -- -- 94
2018-03-31 08:00:00 7.4 4 Oeste 10 Oeste 0 -- -- 89
2018-03-31 07:00:00 8.5 7 Noroeste 12 Noroeste 0 -- -- 89
2018-03-31 06:00:00 9.1 8 Oeste 14 Noroeste 0 -- -- 87
2018-03-31 05:00:00 9.5 8 Noroeste 15 Oeste 0 -- -- 87
2018-03-31 04:00:00 10.2 8 Oeste 15 Oeste 0 -- -- 88
2018-03-31 03:00:00 10.4 9 Oeste 19 Oeste 0 -- -- 88
2018-03-31 02:00:00 11.2 11 Oeste 24 Oeste 0 -- -- 90
2018-03-31 01:00:00 12.3 19 Oeste 46 Oeste 1.4 -- -- 92
2018-03-31 00:00:00 14.1 25 Oeste 47 Oeste 0 -- -- 72
2018-03-30 23:00:00 13.8 30 Oeste 51 Sudoeste 0 -- -- 70
2018-03-30 22:00:00 13.6 36 Oeste 60 Oeste 0 -- -- 68
2018-03-30 21:00:00 13.6 35 Oeste 54 Oeste 0 -- -- 66
2018-03-30 20:00:00 14.6 38 Oeste 54 Oeste 0 -- -- 63
2018-03-30 19:00:00 15.6 37 Oeste 59 Oeste 0 -- -- 59
2018-03-30 18:00:00 16.1 39 Oeste 53 Oeste 0 -- -- 58
2018-03-30 17:00:00 16.3 35 Oeste 53 Sudoeste 0 -- -- 58
2018-03-30 16:00:00 16.5 36 Oeste 50 Oeste 0 -- -- 59
2018-03-30 15:00:00 15.9 26 Sudoeste 41 Oeste 0 -- -- 62
2018-03-30 14:00:00 15.9 30 Oeste 39 Oeste 0 -- -- 64
2018-03-30 13:00:00 15.4 22 Oeste 35 Sudoeste 0 -- -- 67
2018-03-30 12:00:00 14.5 23 Oeste 33 Oeste 0 -- -- 72
2018-03-30 11:00:00 12.9 14 Oeste 24 Oeste 0 -- -- 81
2018-03-30 10:00:00 11.6 9 Oeste 16 Oeste 0.2 -- -- 93
2018-03-30 09:00:00 11.3 12 Oeste 18 Oeste 1.8 -- -- 94
2018-03-30 08:00:00 10.9 3 Oeste 25 Oeste 1.8 -- -- 94
2018-03-30 07:00:00 11.5 18 Oeste 40 Sudoeste 0.8 -- -- 92
2018-03-30 06:00:00 13 19 Oeste 35 Oeste 0 -- -- 76
2018-03-30 05:00:00 12.5 18 Oeste 29 Oeste 0 -- -- 74
2018-03-30 04:00:00 11.4 13 Oeste 23 Oeste 0 -- -- 82
2018-03-30 03:00:00 9.3 11 Oeste 18 Oeste 0 -- -- 87
2018-03-30 02:00:00 8.7 6 Noroeste 13 Noroeste 0 -- -- 76
2018-03-30 01:00:00 9.8 6 Oeste 14 Oeste 0 -- -- 72
2018-03-30 00:00:00 10.9 9 Oeste 17 Noroeste 0 -- -- 67
2018-03-29 23:00:00 12.7 8 Noroeste 25 Sudoeste 0 -- -- 66
2018-03-29 22:00:00 13.3 18 Sudoeste 31 Sudoeste 0 -- -- 76
2018-03-29 21:00:00 13.3 19 Sudoeste 31 Sudoeste 0 -- -- 72
2018-03-29 20:00:00 14.7 23 Sudoeste 37 Oeste 0 -- -- 65
2018-03-29 19:00:00 15.8 26 Sudoeste 41 Oeste 0 -- -- 62
2018-03-29 18:00:00 16.8 27 Sudoeste 40 Sudoeste 0 -- -- 56
2018-03-29 17:00:00 16.9 30 Oeste 43 Oeste 0 -- -- 57
2018-03-29 16:00:00 16.7 32 Oeste 42 Oeste 0 -- -- 56
2018-03-29 15:00:00 16.9 30 Oeste 41 Sudoeste 0 -- -- 58
2018-03-29 14:00:00 17.5 26 Oeste 36 Oeste 0 -- -- 54
2018-03-29 13:00:00 17.1 22 Oeste 31 Oeste 0 -- -- 55
2018-03-29 12:00:00 15.9 13 Oeste 24 Oeste 0 -- -- 69
2018-03-29 11:00:00 14.8 9 Noroeste 21 Noroeste 0 -- -- 75
2018-03-29 10:00:00 12.4 8 Oeste 15 Noroeste 0 -- -- 91
2018-03-29 09:00:00 10 7 Oeste 15 Noroeste 0 -- -- 92
2018-03-29 08:00:00 11 10 Noroeste 20 Noroeste 0 -- -- 89
2018-03-29 07:00:00 9.9 8 Noroeste 15 Noroeste 0 -- -- 95
2018-03-29 06:00:00 9.2 4 Oeste 10 Oeste 0 -- -- 92
2018-03-29 05:00:00 10.2 6 Oeste 15 Oeste 0 -- -- 90
2018-03-29 04:00:00 11.2 8 Oeste 13 Noroeste 0 -- -- 88
2018-03-29 03:00:00 12 8 Noroeste 18 Noroeste 0 -- -- 87
2018-03-29 02:00:00 12.2 6 Oeste 15 Oeste 0 -- -- 84
2018-03-29 01:00:00 11.4 6 Oeste 15 Oeste 0 -- -- 78
2018-03-29 00:00:00 11.6 7 Oeste 12 Noroeste 0 -- -- 75
2018-03-28 23:00:00 13.4 7 Oeste 13 Oeste 0 -- -- 67
2018-03-28 22:00:00 15.3 12 Oeste 21 Oeste 0 -- -- 63
2018-03-28 21:00:00 16.6 15 Oeste 24 Oeste 0 -- -- 67
2018-03-28 20:00:00 18.8 16 Oeste 32 Oeste 0 -- -- 64
2018-03-28 19:00:00 19.3 22 Oeste 31 Oeste 0 -- -- 66
2018-03-28 18:00:00 21.8 21 Sudoeste 28 Sudoeste 0 -- -- 54
2018-03-28 17:00:00 22.9 19 Sudoeste 26 Sudoeste 0 -- -- 50
2018-03-28 16:00:00 22.9 17 Oeste 22 Oeste 0 -- -- 57
2018-03-28 15:00:00 22.6 12 Oeste 21 Oeste 0 -- -- 59
2018-03-28 14:00:00 21.1 5 Este 11 Este 0 -- -- 64
2018-03-28 13:00:00 18.9 5 Nordeste 14 Nordeste 0 -- -- 70
2018-03-28 12:00:00 16.6 7 Nordeste 13 Nordeste 0 -- -- 80
2018-03-28 11:00:00 14.4 8 Nordeste 11 Nordeste 0 -- -- 84
2018-03-28 10:00:00 11 4 Norte 9 Norte 0 -- -- 98
2018-03-28 09:00:00 9 4 Norte 8 Norte 0 -- -- 98
2018-03-28 08:00:00 9.3 5 Nordeste 8 Norte 0 -- -- 98
2018-03-28 07:00:00 8.4 0 Calma 6 Norte 0 -- -- 96
2018-03-28 06:00:00 9.1 2 Norte 5 Norte 0 -- -- 97
2018-03-28 05:00:00 9.1 3 Nordeste 5 Norte 0 -- -- 97
2018-03-28 04:00:00 8.6 2 Oeste 5 Oeste 0 -- -- 94
2018-03-28 03:00:00 9.7 0 Calma 7 Oeste 0 -- -- 94
2018-03-28 02:00:00 10.3 0 Calma 11 Norte 0 -- -- 90
2018-03-28 01:00:00 11.1 0 Calma 9 Noroeste 0 -- -- 88
2018-03-28 00:00:00 12.8 0 Calma 12 Oeste 0 -- -- 88
2018-03-27 23:00:00 13.7 9 Oeste 17 Oeste 0 -- -- 89
2018-03-27 22:00:00 14.1 12 Oeste 15 Oeste 0 -- -- 88
2018-03-27 21:00:00 15.8 10 Oeste 14 Oeste 0 -- -- 69
2018-03-27 20:00:00 19.6 10 Oeste 20 Oeste 0 -- -- 52
2018-03-27 19:00:00 23 7 Sudoeste 16 Oeste 0 -- -- 50
2018-03-27 18:00:00 23 9 Sudoeste 19 Oeste 0 -- -- 48
2018-03-27 17:00:00 22.6 10 Sudoeste 23 Sudoeste 0 -- -- 49
2018-03-27 16:00:00 22.1 4 Sudeste 16 Este 0 -- -- 50
2018-03-27 15:00:00 20.5 6 Este 14 Este 0 -- -- 58
2018-03-27 14:00:00 19 8 Nordeste 15 Este 0 -- -- 59
2018-03-27 13:00:00 17.5 8 Nordeste 17 Nordeste 0 -- -- 65
2018-03-27 12:00:00 15.9 10 Nordeste 17 Nordeste 0 -- -- 67
2018-03-27 11:00:00 14 6 Nordeste 13 Nordeste 0 -- -- 78
2018-03-27 10:00:00 11.7 8 Nordeste 14 Nordeste 0 -- -- 82
2018-03-27 09:00:00 8.4 5 Norte 12 Norte 0 -- -- 87
2018-03-27 08:00:00 6.9 4 Norte 9 Norte 0 -- -- 86
2018-03-27 07:00:00 8.1 6 Norte 10 Norte 0 -- -- 84
2018-03-27 06:00:00 7.5 3 Norte 5 Norte 0 -- -- 89
2018-03-27 05:00:00 7.7 4 Noroeste 15 Oeste 0 -- -- 83
2018-03-27 04:00:00 9.2 5 Noroeste 12 Norte 0 -- -- 79
2018-03-27 03:00:00 10.1 8 Norte 13 Norte 0 -- -- 80
2018-03-27 02:00:00 9.9 6 Noroeste 9 Noroeste 0 -- -- 79
2018-03-27 01:00:00 11.7 4 Norte 16 Oeste 0 -- -- 75
2018-03-27 00:00:00 13.3 11 Oeste 26 Oeste 0 -- -- 83
2018-03-26 23:00:00 13.4 18 Sudoeste 26 Sudoeste 0 -- -- 86
2018-03-26 22:00:00 13.1 10 Oeste 18 Oeste 0 -- -- 79
2018-03-26 21:00:00 13.8 9 Sudoeste 18 Oeste 0 -- -- 80
2018-03-26 20:00:00 16.6 13 Oeste 23 Oeste 0 -- -- 62
2018-03-26 19:00:00 18.4 17 Oeste 23 Oeste 0 -- -- 55
2018-03-26 18:00:00 19 16 Sudoeste 24 Sudoeste 0 -- -- 48
2018-03-26 17:00:00 18.8 16 Sudoeste 23 Oeste 0 -- -- 50
2018-03-26 16:00:00 18.6 15 Sudoeste 22 Sudoeste 0 -- -- 50
2018-03-26 15:00:00 17.9 12 Oeste 19 Oeste 0 -- -- 57
2018-03-26 14:00:00 16.7 5 Este 12 Este 0 -- -- 57
2018-03-26 13:00:00 15.6 6 Nordeste 13 Este 0 -- -- 58
2018-03-26 12:00:00 14.2 5 Nordeste 13 Norte 0 -- -- 57
2018-03-26 11:00:00 12.9 7 Nordeste 11 Nordeste 0 -- -- 65
2018-03-26 10:00:00 8.9 8 Noroeste 15 Noroeste 0 -- -- 87
2018-03-26 09:00:00 5.9 9 Noroeste 12 Noroeste 0 -- -- 93
2018-03-26 08:00:00 5.2 3 Oeste 9 Noroeste 0 -- -- 91
2018-03-26 07:00:00 5.2 2 Sudoeste 8 Noroeste 0 -- -- 88
2018-03-26 06:00:00 6.7 5 Noroeste 9 Noroeste 0 -- -- 88
2018-03-26 05:00:00 7.6 5 Oeste 12 Oeste 0 -- -- 85
2018-03-26 04:00:00 8.6 8 Noroeste 19 Noroeste 0 -- -- 81
2018-03-26 03:00:00 9 10 Noroeste 19 Noroeste 0 -- -- 79
2018-03-26 02:00:00 10 10 Noroeste 18 Noroeste 0 -- -- 75
2018-03-26 01:00:00 9.7 9 Noroeste 16 Noroeste 0 -- -- 75
2018-03-26 00:00:00 10.2 7 Oeste 15 Noroeste 0 -- -- 70
2018-03-25 23:00:00 10.9 7 Noroeste 12 Noroeste 0 -- -- 64
2018-03-25 22:00:00 12.3 4 Oeste 11 Noroeste 0 -- -- 60
2018-03-25 21:00:00 14.5 4 Noroeste 22 Noroeste 0 -- -- 53
2018-03-25 20:00:00 16.8 10 Norte 31 Norte 0 -- -- 47
2018-03-25 19:00:00 17.6 14 Norte 35 Norte 0 -- -- 46
2018-03-25 18:00:00 18.1 16 Noroeste 39 Noroeste 0 -- -- 51
2018-03-25 17:00:00 19.2 20 Noroeste 42 Noroeste 0 -- -- 55
2018-03-25 16:00:00 18.8 22 Noroeste 35 Noroeste 0 -- -- 63
2018-03-25 15:00:00 16.8 24 Oeste 35 Oeste 0 -- -- 76
2018-03-25 14:00:00 15.9 24 Oeste 39 Oeste 0 -- -- 78
2018-03-25 13:00:00 15.8 22 Oeste 44 Oeste 0 -- -- 75
2018-03-25 12:00:00 16.2 27 Oeste 50 Oeste 0.2 -- -- 77
2018-03-25 11:00:00 14.2 18 Oeste 37 Oeste 0.4 -- -- 93
2018-03-25 10:00:00 14.2 23 Oeste 42 Oeste 0.2 -- -- 95
2018-03-25 09:00:00 13.4 30 Sudoeste 48 Oeste 1 -- -- 98
2018-03-25 08:00:00 12.2 24 Sudoeste 38 Sudoeste 2.2 -- -- 97
2018-03-25 07:00:00 10.7 12 Sudoeste 20 Sudoeste 1.6 -- -- 96
2018-03-25 06:00:00 10.3 6 Oeste 17 Oeste 2 -- -- 94
2018-03-25 05:00:00 10.2 5 Oeste 19 Oeste 0.8 -- -- 87
2018-03-25 03:00:00 12.4 18 Oeste 31 Oeste 0 -- -- 68
2018-03-25 01:00:00 11.9 14 Oeste 30 Oeste 0 -- -- 73
2018-03-25 00:00:00 12 15 Oeste 31 Oeste 0 -- -- 71
2018-03-24 23:00:00 12.2 18 Oeste 35 Oeste 0 -- -- 68
2018-03-24 22:00:00 12.4 14 Oeste 28 Oeste 0 -- -- 66
2018-03-24 21:00:00 12.9 13 Oeste 33 Oeste 0 -- -- 62
2018-03-24 20:00:00 13.9 17 Oeste 29 Oeste 0 -- -- 59
2018-03-24 19:00:00 15.9 17 Noroeste 41 Oeste 0 -- -- 47
2018-03-24 18:00:00 15.8 24 Oeste 40 Oeste 0 -- -- 58
2018-03-24 17:00:00 15.4 28 Oeste 50 Sudoeste 0 -- -- 54
2018-03-24 16:00:00 16.8 37 Oeste 52 Oeste 0 -- -- 48
2018-03-24 15:00:00 16.3 26 Oeste 43 Oeste 0 -- -- 49
2018-03-24 14:00:00 15.1 20 Oeste 38 Noroeste 0 -- -- 51
2018-03-24 13:00:00 14.1 17 Noroeste 35 Norte 0 -- -- 53
2018-03-24 12:00:00 14 15 Noroeste 39 Noroeste 0 -- -- 57
2018-03-24 11:00:00 13.1 22 Noroeste 42 Noroeste 0 -- -- 60
2018-03-24 10:00:00 11.9 18 Noroeste 36 Noroeste 0 -- -- 69
2018-03-24 09:00:00 10 14 Noroeste 29 Noroeste 0 -- -- 80
2018-03-24 08:00:00 7.9 11 Oeste 19 Noroeste 0 -- -- 89
2018-03-24 07:00:00 8.7 14 Noroeste 30 Noroeste 0 -- -- 85
2018-03-24 06:00:00 9.2 15 Oeste 30 Oeste 0 -- -- 89
2018-03-24 05:00:00 10.1 12 Oeste 27 Noroeste 0 -- -- 91
2018-03-24 04:00:00 10.2 15 Noroeste 55 Oeste 1.2 -- -- 89
2018-03-24 03:00:00 14.1 42 Sudoeste 60 Sudoeste 0.6 -- -- 94
2018-03-24 02:00:00 14.8 32 Oeste 54 Oeste 0 -- -- 88
2018-03-24 01:00:00 14.7 35 Oeste 54 Oeste 0 -- -- 89
2018-03-24 00:00:00 14.4 32 Sudoeste 53 Sudoeste 0 -- -- 91
2018-03-23 23:00:00 14.4 33 Oeste 52 Oeste 0 -- -- 92
2018-03-23 22:00:00 14.3 25 Oeste 36 Oeste 0 -- -- 94
2018-03-23 21:00:00 14.3 28 Oeste 39 Oeste 0 -- -- 95
2018-03-23 20:00:00 14.3 24 Sudoeste 40 Sudoeste 0 -- -- 96
2018-03-23 19:00:00 14.4 26 Sudoeste 44 Sudoeste 0.2 -- -- 97
2018-03-23 18:00:00 13.9 28 Sudoeste 44 Sudoeste 0.2 -- -- 97
2018-03-23 17:00:00 13.6 26 Sudoeste 39 Sudoeste 1 -- -- 96
2018-03-23 16:00:00 13.4 19 Sudoeste 30 Sudoeste 0.2 -- -- 96
2018-03-23 15:00:00 13.4 18 Sudoeste 29 Sudoeste 0.4 -- -- 94
2018-03-23 14:00:00 13.8 20 Sudoeste 29 Sudoeste 0 -- -- 84
2018-03-23 13:00:00 14.3 18 Sudoeste 28 Oeste 0 -- -- 78
2018-03-23 12:00:00 13.3 17 Sudoeste 26 Sudoeste 0 -- -- 80
2018-03-23 11:00:00 12.7 17 Oeste 23 Oeste 0 -- -- 82
2018-03-23 10:00:00 12.1 13 Oeste 22 Oeste 0 -- -- 82
2018-03-23 09:00:00 10.8 13 Oeste 21 Oeste 0 -- -- 86
2018-03-23 08:00:00 8.7 10 Oeste 16 Oeste 0 -- -- 91
2018-03-23 07:00:00 6.5 9 Oeste 15 Noroeste 0 -- -- 94
2018-03-23 06:00:00 5.2 8 Oeste 13 Sudoeste 0 -- -- 94
2018-03-23 05:00:00 4.9 7 Oeste 9 Oeste 0 -- -- 91
2018-03-23 04:00:00 6.5 4 Oeste 11 Oeste 0 -- -- 89
2018-03-23 03:00:00 8.4 9 Oeste 19 Noroeste 0 -- -- 89
2018-03-23 02:00:00 9 8 Noroeste 20 Noroeste 0 -- -- 87
2018-03-23 01:00:00 9.9 12 Noroeste 21 Noroeste 0 -- -- 84
2018-03-23 00:00:00 10.6 9 Noroeste 16 Noroeste 0 -- -- 82